sensor_id;sensor_type;location;lat;lon;timestamp;temperature;humidity
51029;DHT22;37054;52.054;8.600;2022-07-25T00:00:42;24.90;45.80
51029;DHT22;37054;52.054;8.600;2022-07-25T00:03:08;24.90;45.90
51029;DHT22;37054;52.054;8.600;2022-07-25T00:05:34;24.80;46.00
51029;DHT22;37054;52.054;8.600;2022-07-25T00:08:02;24.80;46.10
51029;DHT22;37054;52.054;8.600;2022-07-25T00:10:27;24.80;46.20
51029;DHT22;37054;52.054;8.600;2022-07-25T00:12:53;24.80;46.20
51029;DHT22;37054;52.054;8.600;2022-07-25T00:15:18;24.70;46.40
51029;DHT22;37054;52.054;8.600;2022-07-25T00:17:44;24.70;46.60
51029;DHT22;37054;52.054;8.600;2022-07-25T00:20:14;24.70;46.60
51029;DHT22;37054;52.054;8.600;2022-07-25T00:22:40;24.70;46.60
51029;DHT22;37054;52.054;8.600;2022-07-25T00:25:06;24.60;46.60
51029;DHT22;37054;52.054;8.600;2022-07-25T00:27:31;24.60;46.80
51029;DHT22;37054;52.054;8.600;2022-07-25T00:29:57;24.60;46.80
51029;DHT22;37054;52.054;8.600;2022-07-25T00:32:22;24.50;46.90
51029;DHT22;37054;52.054;8.600;2022-07-25T00:34:48;24.50;47.20
51029;DHT22;37054;52.054;8.600;2022-07-25T00:37:13;24.50;47.20
51029;DHT22;37054;52.054;8.600;2022-07-25T00:39:39;24.50;47.20
51029;DHT22;37054;52.054;8.600;2022-07-25T00:42:04;24.40;47.20
51029;DHT22;37054;52.054;8.600;2022-07-25T00:44:31;24.40;47.20
51029;DHT22;37054;52.054;8.600;2022-07-25T00:47:00;24.30;47.30
51029;DHT22;37054;52.054;8.600;2022-07-25T00:49:26;24.30;47.20
51029;DHT22;37054;52.054;8.600;2022-07-25T00:51:52;24.30;47.30
51029;DHT22;37054;52.054;8.600;2022-07-25T00:54:18;24.20;47.50
51029;DHT22;37054;52.054;8.600;2022-07-25T00:56:44;24.20;47.50
51029;DHT22;37054;52.054;8.600;2022-07-25T00:59:10;24.20;47.50
51029;DHT22;37054;52.054;8.600;2022-07-25T01:01:36;24.20;47.50
51029;DHT22;37054;52.054;8.600;2022-07-25T01:04:02;24.10;47.50
51029;DHT22;37054;52.054;8.600;2022-07-25T01:06:27;24.10;47.60
51029;DHT22;37054;52.054;8.600;2022-07-25T01:08:53;24.10;47.80
51029;DHT22;37054;52.054;8.600;2022-07-25T01:11:19;24.00;47.80
51029;DHT22;37054;52.054;8.600;2022-07-25T01:13:45;24.00;48.00
51029;DHT22;37054;52.054;8.600;2022-07-25T01:16:10;24.00;48.10
51029;DHT22;37054;52.054;8.600;2022-07-25T01:18:37;24.00;48.20
51029;DHT22;37054;52.054;8.600;2022-07-25T01:21:03;23.90;48.40
51029;DHT22;37054;52.054;8.600;2022-07-25T01:23:29;23.90;48.50
51029;DHT22;37054;52.054;8.600;2022-07-25T01:25:55;23.90;48.50
51029;DHT22;37054;52.054;8.600;2022-07-25T01:28:20;23.80;48.40
51029;DHT22;37054;52.054;8.600;2022-07-25T01:30:46;23.90;48.40
51029;DHT22;37054;52.054;8.600;2022-07-25T01:33:18;23.80;48.40
51029;DHT22;37054;52.054;8.600;2022-07-25T01:35:44;23.80;48.50
51029;DHT22;37054;52.054;8.600;2022-07-25T01:38:09;23.80;48.60
51029;DHT22;37054;52.054;8.600;2022-07-25T01:40:35;23.80;48.60
51029;DHT22;37054;52.054;8.600;2022-07-25T01:43:00;23.80;48.80
51029;DHT22;37054;52.054;8.600;2022-07-25T01:45:26;23.80;48.90
51029;DHT22;37054;52.054;8.600;2022-07-25T01:47:54;23.70;48.80
51029;DHT22;37054;52.054;8.600;2022-07-25T01:50:19;23.70;48.80
51029;DHT22;37054;52.054;8.600;2022-07-25T01:52:45;23.70;48.70
51029;DHT22;37054;52.054;8.600;2022-07-25T01:55:10;23.70;48.70
51029;DHT22;37054;52.054;8.600;2022-07-25T01:57:36;23.70;48.70
51029;DHT22;37054;52.054;8.600;2022-07-25T02:00:06;23.60;48.90
51029;DHT22;37054;52.054;8.600;2022-07-25T02:02:31;23.70;48.80
51029;DHT22;37054;52.054;8.600;2022-07-25T02:04:57;23.70;49.10
51029;DHT22;37054;52.054;8.600;2022-07-25T02:07:22;23.60;49.20
51029;DHT22;37054;52.054;8.600;2022-07-25T02:09:48;23.60;49.20
51029;DHT22;37054;52.054;8.600;2022-07-25T02:12:13;23.60;49.20
51029;DHT22;37054;52.054;8.600;2022-07-25T02:14:39;23.60;49.20
51029;DHT22;37054;52.054;8.600;2022-07-25T02:17:05;23.60;49.20
51029;DHT22;37054;52.054;8.600;2022-07-25T02:19:30;23.60;49.20
51029;DHT22;37054;52.054;8.600;2022-07-25T02:21:56;23.60;49.20
51029;DHT22;37054;52.054;8.600;2022-07-25T02:24:21;23.50;49.20
51029;DHT22;37054;52.054;8.600;2022-07-25T02:26:47;23.50;49.20
51029;DHT22;37054;52.054;8.600;2022-07-25T02:29:12;23.50;49.20
51029;DHT22;37054;52.054;8.600;2022-07-25T02:31:38;23.40;49.20
51029;DHT22;37054;52.054;8.600;2022-07-25T02:34:03;23.40;49.20
51029;DHT22;37054;52.054;8.600;2022-07-25T02:36:29;23.40;49.20
51029;DHT22;37054;52.054;8.600;2022-07-25T02:38:54;23.40;49.30
51029;DHT22;37054;52.054;8.600;2022-07-25T02:41:20;23.40;49.20
51029;DHT22;37054;52.054;8.600;2022-07-25T02:43:45;23.40;49.30
51029;DHT22;37054;52.054;8.600;2022-07-25T02:46:11;23.30;49.20
51029;DHT22;37054;52.054;8.600;2022-07-25T02:48:36;23.30;49.20
51029;DHT22;37054;52.054;8.600;2022-07-25T02:51:02;23.30;49.20
51029;DHT22;37054;52.054;8.600;2022-07-25T02:53:27;23.20;49.30
51029;DHT22;37054;52.054;8.600;2022-07-25T02:55:52;23.20;49.40
51029;DHT22;37054;52.054;8.600;2022-07-25T02:58:18;23.20;49.50
51029;DHT22;37054;52.054;8.600;2022-07-25T03:00:43;23.20;49.50
51029;DHT22;37054;52.054;8.600;2022-07-25T03:03:09;23.20;49.60
51029;DHT22;37054;52.054;8.600;2022-07-25T03:05:35;23.10;49.60
51029;DHT22;37054;52.054;8.600;2022-07-25T03:08:00;23.10;49.60
51029;DHT22;37054;52.054;8.600;2022-07-25T03:10:25;23.10;49.80
51029;DHT22;37054;52.054;8.600;2022-07-25T03:12:51;23.10;49.80
51029;DHT22;37054;52.054;8.600;2022-07-25T03:15:16;23.10;49.80
51029;DHT22;37054;52.054;8.600;2022-07-25T03:17:42;23.10;49.80
51029;DHT22;37054;52.054;8.600;2022-07-25T03:20:08;23.10;49.80
51029;DHT22;37054;52.054;8.600;2022-07-25T03:22:34;23.10;49.80
51029;DHT22;37054;52.054;8.600;2022-07-25T03:24:59;23.10;49.80
51029;DHT22;37054;52.054;8.600;2022-07-25T03:27:26;23.10;49.80
51029;DHT22;37054;52.054;8.600;2022-07-25T03:29:52;23.00;49.80
51029;DHT22;37054;52.054;8.600;2022-07-25T03:32:18;23.00;49.80
51029;DHT22;37054;52.054;8.600;2022-07-25T03:34:44;23.00;49.80
51029;DHT22;37054;52.054;8.600;2022-07-25T03:37:09;23.00;49.80
51029;DHT22;37054;52.054;8.600;2022-07-25T03:39:35;22.90;49.90
51029;DHT22;37054;52.054;8.600;2022-07-25T03:42:00;22.90;50.00
51029;DHT22;37054;52.054;8.600;2022-07-25T03:44:26;23.00;50.10
51029;DHT22;37054;52.054;8.600;2022-07-25T03:46:51;23.00;50.20
51029;DHT22;37054;52.054;8.600;2022-07-25T03:49:17;23.00;50.20
51029;DHT22;37054;52.054;8.600;2022-07-25T03:51:42;23.00;50.30
51029;DHT22;37054;52.054;8.600;2022-07-25T03:54:08;23.00;50.50
51029;DHT22;37054;52.054;8.600;2022-07-25T03:56:44;23.10;50.70
51029;DHT22;37054;52.054;8.600;2022-07-25T03:59:11;23.20;50.80
51029;DHT22;37054;52.054;8.600;2022-07-25T04:01:37;23.30;51.00
51029;DHT22;37054;52.054;8.600;2022-07-25T04:04:02;23.50;51.20
51029;DHT22;37054;52.054;8.600;2022-07-25T04:06:29;23.70;51.10
51029;DHT22;37054;52.054;8.600;2022-07-25T04:08:54;23.80;51.10
51029;DHT22;37054;52.054;8.600;2022-07-25T04:11:20;24.10;51.00
51029;DHT22;37054;52.054;8.600;2022-07-25T04:13:46;24.30;50.80
51029;DHT22;37054;52.054;8.600;2022-07-25T04:16:11;24.60;50.60
51029;DHT22;37054;52.054;8.600;2022-07-25T04:18:37;24.90;50.40
51029;DHT22;37054;52.054;8.600;2022-07-25T04:21:03;25.20;50.10
51029;DHT22;37054;52.054;8.600;2022-07-25T04:23:29;25.40;49.90
51029;DHT22;37054;52.054;8.600;2022-07-25T04:25:54;25.80;49.50
51029;DHT22;37054;52.054;8.600;2022-07-25T04:28:20;26.10;49.10
51029;DHT22;37054;52.054;8.600;2022-07-25T04:30:46;26.40;48.80
51029;DHT22;37054;52.054;8.600;2022-07-25T04:33:11;26.80;48.20
51029;DHT22;37054;52.054;8.600;2022-07-25T04:35:37;27.10;47.60
51029;DHT22;37054;52.054;8.600;2022-07-25T04:38:03;27.40;47.30
51029;DHT22;37054;52.054;8.600;2022-07-25T04:40:28;27.80;46.80
51029;DHT22;37054;52.054;8.600;2022-07-25T04:42:53;28.20;46.40
51029;DHT22;37054;52.054;8.600;2022-07-25T04:45:19;28.50;45.70
51029;DHT22;37054;52.054;8.600;2022-07-25T04:47:45;28.90;44.90
51029;DHT22;37054;52.054;8.600;2022-07-25T04:50:10;29.30;44.40
51029;DHT22;37054;52.054;8.600;2022-07-25T04:52:36;29.70;43.40
51029;DHT22;37054;52.054;8.600;2022-07-25T04:55:01;30.00;42.40
51029;DHT22;37054;52.054;8.600;2022-07-25T04:57:28;30.30;41.80
51029;DHT22;37054;52.054;8.600;2022-07-25T04:59:54;30.70;41.30
51029;DHT22;37054;52.054;8.600;2022-07-25T05:02:20;30.90;40.70
51029;DHT22;37054;52.054;8.600;2022-07-25T05:04:46;31.30;40.20
51029;DHT22;37054;52.054;8.600;2022-07-25T05:07:11;31.70;39.70
51029;DHT22;37054;52.054;8.600;2022-07-25T05:09:37;32.00;39.20
51029;DHT22;37054;52.054;8.600;2022-07-25T05:12:02;32.40;38.40
51029;DHT22;37054;52.054;8.600;2022-07-25T05:14:28;32.80;37.70
51029;DHT22;37054;52.054;8.600;2022-07-25T05:16:53;33.10;36.90
51029;DHT22;37054;52.054;8.600;2022-07-25T05:19:19;33.50;36.30
51029;DHT22;37054;52.054;8.600;2022-07-25T05:21:44;33.80;35.70
51029;DHT22;37054;52.054;8.600;2022-07-25T05:24:10;34.10;34.90
51029;DHT22;37054;52.054;8.600;2022-07-25T05:26:35;34.40;34.40
51029;DHT22;37054;52.054;8.600;2022-07-25T05:29:01;34.70;34.20
51029;DHT22;37054;52.054;8.600;2022-07-25T05:31:26;35.20;33.90
51029;DHT22;37054;52.054;8.600;2022-07-25T05:33:52;35.60;33.20
51029;DHT22;37054;52.054;8.600;2022-07-25T05:36:17;36.00;32.60
51029;DHT22;37054;52.054;8.600;2022-07-25T05:38:42;36.30;32.20
51029;DHT22;37054;52.054;8.600;2022-07-25T05:41:08;36.80;31.50
51029;DHT22;37054;52.054;8.600;2022-07-25T05:43:33;37.10;31.10
51029;DHT22;37054;52.054;8.600;2022-07-25T05:46:02;37.40;30.70
51029;DHT22;37054;52.054;8.600;2022-07-25T05:48:28;37.90;30.30
51029;DHT22;37054;52.054;8.600;2022-07-25T05:50:54;38.30;29.70
51029;DHT22;37054;52.054;8.600;2022-07-25T05:53:19;38.80;29.40
51029;DHT22;37054;52.054;8.600;2022-07-25T05:55:45;39.20;28.70
51029;DHT22;37054;52.054;8.600;2022-07-25T05:58:10;39.50;28.00
51029;DHT22;37054;52.054;8.600;2022-07-25T06:00:36;39.80;27.60
51029;DHT22;37054;52.054;8.600;2022-07-25T06:03:02;40.10;27.20
51029;DHT22;37054;52.054;8.600;2022-07-25T06:05:27;40.40;26.80
51029;DHT22;37054;52.054;8.600;2022-07-25T06:07:52;40.50;26.40
51029;DHT22;37054;52.054;8.600;2022-07-25T06:10:18;40.50;26.40
51029;DHT22;37054;52.054;8.600;2022-07-25T06:12:44;40.70;26.30
51029;DHT22;37054;52.054;8.600;2022-07-25T06:15:09;40.90;26.20
51029;DHT22;37054;52.054;8.600;2022-07-25T06:17:35;41.00;25.90
51029;DHT22;37054;52.054;8.600;2022-07-25T06:20:00;40.90;25.70
51029;DHT22;37054;52.054;8.600;2022-07-25T06:22:26;41.00;25.60
51029;DHT22;37054;52.054;8.600;2022-07-25T06:24:51;41.00;25.50
51029;DHT22;37054;52.054;8.600;2022-07-25T06:27:17;41.20;25.40
51029;DHT22;37054;52.054;8.600;2022-07-25T06:29:42;41.30;25.40
51029;DHT22;37054;52.054;8.600;2022-07-25T06:32:08;41.50;25.70
51029;DHT22;37054;52.054;8.600;2022-07-25T06:34:33;41.70;25.40
51029;DHT22;37054;52.054;8.600;2022-07-25T06:36:59;42.00;25.10
51029;DHT22;37054;52.054;8.600;2022-07-25T06:39:26;42.00;24.80
51029;DHT22;37054;52.054;8.600;2022-07-25T06:41:52;42.10;24.60
51029;DHT22;37054;52.054;8.600;2022-07-25T06:44:18;42.20;24.50
51029;DHT22;37054;52.054;8.600;2022-07-25T06:46:43;42.30;24.60
51029;DHT22;37054;52.054;8.600;2022-07-25T06:49:09;42.40;24.50
51029;DHT22;37054;52.054;8.600;2022-07-25T06:51:34;42.30;24.30
51029;DHT22;37054;52.054;8.600;2022-07-25T06:54:00;42.20;24.00
51029;DHT22;37054;52.054;8.600;2022-07-25T06:56:25;42.00;24.10
51029;DHT22;37054;52.054;8.600;2022-07-25T06:58:56;41.80;24.30
51029;DHT22;37054;52.054;8.600;2022-07-25T07:01:21;41.80;24.60
51029;DHT22;37054;52.054;8.600;2022-07-25T07:03:46;41.90;24.60
51029;DHT22;37054;52.054;8.600;2022-07-25T07:06:12;41.90;24.30
51029;DHT22;37054;52.054;8.600;2022-07-25T07:08:38;41.90;24.20
51029;DHT22;37054;52.054;8.600;2022-07-25T07:11:03;41.70;22.80
51029;DHT22;37054;52.054;8.600;2022-07-25T07:13:29;41.50;22.60
51029;DHT22;37054;52.054;8.600;2022-07-25T07:15:54;41.50;22.60
51029;DHT22;37054;52.054;8.600;2022-07-25T07:18:20;41.50;22.80
51029;DHT22;37054;52.054;8.600;2022-07-25T07:20:46;41.70;22.50
51029;DHT22;37054;52.054;8.600;2022-07-25T07:23:11;41.70;22.00
51029;DHT22;37054;52.054;8.600;2022-07-25T07:25:37;41.70;21.80
51029;DHT22;37054;52.054;8.600;2022-07-25T07:28:03;41.80;21.90
51029;DHT22;37054;52.054;8.600;2022-07-25T07:30:29;42.10;22.10
51029;DHT22;37054;52.054;8.600;2022-07-25T07:32:55;42.40;22.00
51029;DHT22;37054;52.054;8.600;2022-07-25T07:35:20;42.70;21.10
51029;DHT22;37054;52.054;8.600;2022-07-25T07:37:46;42.70;20.90
51029;DHT22;37054;52.054;8.600;2022-07-25T07:40:12;42.70;20.90
51029;DHT22;37054;52.054;8.600;2022-07-25T07:42:38;42.80;21.10
51029;DHT22;37054;52.054;8.600;2022-07-25T07:45:15;42.90;21.00
51029;DHT22;37054;52.054;8.600;2022-07-25T07:47:40;43.00;21.10
51029;DHT22;37054;52.054;8.600;2022-07-25T07:50:06;43.10;21.00
51029;DHT22;37054;52.054;8.600;2022-07-25T07:52:32;43.10;20.80
51029;DHT22;37054;52.054;8.600;2022-07-25T07:54:57;43.30;21.00
51029;DHT22;37054;52.054;8.600;2022-07-25T07:57:42;43.50;20.60
51029;DHT22;37054;52.054;8.600;2022-07-25T08:00:07;43.50;20.40
51029;DHT22;37054;52.054;8.600;2022-07-25T08:02:40;43.50;20.30
51029;DHT22;37054;52.054;8.600;2022-07-25T08:05:06;43.80;20.60
51029;DHT22;37054;52.054;8.600;2022-07-25T08:07:32;43.90;20.20
51029;DHT22;37054;52.054;8.600;2022-07-25T08:09:57;43.90;19.90
51029;DHT22;37054;52.054;8.600;2022-07-25T08:12:23;43.80;19.90
51029;DHT22;37054;52.054;8.600;2022-07-25T08:14:51;43.80;19.80
51029;DHT22;37054;52.054;8.600;2022-07-25T08:17:16;43.70;19.80
51029;DHT22;37054;52.054;8.600;2022-07-25T08:19:42;43.70;20.00
51029;DHT22;37054;52.054;8.600;2022-07-25T08:22:07;43.80;20.20
51029;DHT22;37054;52.054;8.600;2022-07-25T08:24:33;44.00;20.20
51029;DHT22;37054;52.054;8.600;2022-07-25T08:26:59;44.40;20.10
51029;DHT22;37054;52.054;8.600;2022-07-25T08:29:24;44.90;20.00
51029;DHT22;37054;52.054;8.600;2022-07-25T08:31:50;45.40;19.90
51029;DHT22;37054;52.054;8.600;2022-07-25T08:34:18;46.00;19.40
51029;DHT22;37054;52.054;8.600;2022-07-25T08:36:46;46.20;19.00
51029;DHT22;37054;52.054;8.600;2022-07-25T08:39:12;46.30;18.40
51029;DHT22;37054;52.054;8.600;2022-07-25T08:41:40;46.60;18.50
51029;DHT22;37054;52.054;8.600;2022-07-25T08:44:07;46.80;18.20
51029;DHT22;37054;52.054;8.600;2022-07-25T08:46:33;47.10;18.30
51029;DHT22;37054;52.054;8.600;2022-07-25T08:48:59;47.30;18.00
51029;DHT22;37054;52.054;8.600;2022-07-25T08:51:24;47.40;18.00
51029;DHT22;37054;52.054;8.600;2022-07-25T08:53:50;47.50;17.90
51029;DHT22;37054;52.054;8.600;2022-07-25T08:56:15;47.30;17.50
51029;DHT22;37054;52.054;8.600;2022-07-25T08:58:40;47.10;17.70
51029;DHT22;37054;52.054;8.600;2022-07-25T09:01:06;47.00;18.00
51029;DHT22;37054;52.054;8.600;2022-07-25T09:03:32;47.00;18.10
51029;DHT22;37054;52.054;8.600;2022-07-25T09:05:57;46.90;17.90
51029;DHT22;37054;52.054;8.600;2022-07-25T09:08:23;46.60;17.90
51029;DHT22;37054;52.054;8.600;2022-07-25T09:10:49;46.40;18.10
51029;DHT22;37054;52.054;8.600;2022-07-25T09:13:15;46.30;18.30
51029;DHT22;37054;52.054;8.600;2022-07-25T09:15:51;46.20;18.50
51029;DHT22;37054;52.054;8.600;2022-07-25T09:18:23;46.20;18.60
51029;DHT22;37054;52.054;8.600;2022-07-25T09:20:51;46.30;18.40
51029;DHT22;37054;52.054;8.600;2022-07-25T09:23:30;46.40;18.40
51029;DHT22;37054;52.054;8.600;2022-07-25T09:28:31;46.50;18.10
51029;DHT22;37054;52.054;8.600;2022-07-25T09:30:57;46.50;18.00
51029;DHT22;37054;52.054;8.600;2022-07-25T09:33:23;46.50;18.20
51029;DHT22;37054;52.054;8.600;2022-07-25T09:35:50;46.60;18.10
51029;DHT22;37054;52.054;8.600;2022-07-25T09:38:16;46.70;18.00
51029;DHT22;37054;52.054;8.600;2022-07-25T09:40:52;46.70;17.80
51029;DHT22;37054;52.054;8.600;2022-07-25T09:43:18;46.60;17.60
51029;DHT22;37054;52.054;8.600;2022-07-25T09:45:52;46.40;17.30
51029;DHT22;37054;52.054;8.600;2022-07-25T09:48:18;46.20;17.50
51029;DHT22;37054;52.054;8.600;2022-07-25T09:50:45;46.10;17.50
51029;DHT22;37054;52.054;8.600;2022-07-25T09:53:10;45.80;17.70
51029;DHT22;37054;52.054;8.600;2022-07-25T09:55:36;45.70;17.80
51029;DHT22;37054;52.054;8.600;2022-07-25T09:58:01;45.50;17.80
51029;DHT22;37054;52.054;8.600;2022-07-25T10:00:27;45.40;17.70
51029;DHT22;37054;52.054;8.600;2022-07-25T10:07:48;44.60;18.10
51029;DHT22;37054;52.054;8.600;2022-07-25T10:10:27;44.40;18.40
51029;DHT22;37054;52.054;8.600;2022-07-25T10:12:57;44.30;18.70
51029;DHT22;37054;52.054;8.600;2022-07-25T10:15:23;44.20;18.90
51029;DHT22;37054;52.054;8.600;2022-07-25T10:17:48;44.00;19.20
51029;DHT22;37054;52.054;8.600;2022-07-25T10:20:16;43.90;19.30
51029;DHT22;37054;52.054;8.600;2022-07-25T10:22:51;43.60;19.50
51029;DHT22;37054;52.054;8.600;2022-07-25T10:25:17;43.30;19.70
51029;DHT22;37054;52.054;8.600;2022-07-25T10:27:44;43.20;19.90
51029;DHT22;37054;52.054;8.600;2022-07-25T10:33:12;43.10;20.20
51029;DHT22;37054;52.054;8.600;2022-07-25T10:35:38;43.10;20.30
51029;DHT22;37054;52.054;8.600;2022-07-25T10:38:04;43.30;20.40
51029;DHT22;37054;52.054;8.600;2022-07-25T10:45:36;43.90;20.30
51029;DHT22;37054;52.054;8.600;2022-07-25T10:48:05;44.00;20.10
51029;DHT22;37054;52.054;8.600;2022-07-25T10:50:31;44.10;19.90
51029;DHT22;37054;52.054;8.600;2022-07-25T10:52:57;44.20;19.90
51029;DHT22;37054;52.054;8.600;2022-07-25T10:55:33;44.70;20.00
51029;DHT22;37054;52.054;8.600;2022-07-25T10:58:00;45.30;19.70
51029;DHT22;37054;52.054;8.600;2022-07-25T11:00:26;46.00;19.10
51029;DHT22;37054;52.054;8.600;2022-07-25T11:02:54;46.70;18.90
51029;DHT22;37054;52.054;8.600;2022-07-25T11:05:19;47.50;18.60
51029;DHT22;37054;52.054;8.600;2022-07-25T11:07:52;48.30;18.10
51029;DHT22;37054;52.054;8.600;2022-07-25T11:10:24;48.80;17.30
51029;DHT22;37054;52.054;8.600;2022-07-25T11:12:50;49.00;16.80
51029;DHT22;37054;52.054;8.600;2022-07-25T11:15:15;48.60;16.20
51029;DHT22;37054;52.054;8.600;2022-07-25T11:17:49;48.30;16.30
51029;DHT22;37054;52.054;8.600;2022-07-25T11:20:15;48.00;16.40
51029;DHT22;37054;52.054;8.600;2022-07-25T11:22:40;48.10;16.70
51029;DHT22;37054;52.054;8.600;2022-07-25T11:25:10;48.50;16.90
51029;DHT22;37054;52.054;8.600;2022-07-25T11:27:35;48.70;16.80
51029;DHT22;37054;52.054;8.600;2022-07-25T11:32:39;48.30;16.70
51029;DHT22;37054;52.054;8.600;2022-07-25T11:35:04;47.90;16.70
51029;DHT22;37054;52.054;8.600;2022-07-25T11:37:32;47.60;17.00
51029;DHT22;37054;52.054;8.600;2022-07-25T11:39:59;47.50;17.20
51029;DHT22;37054;52.054;8.600;2022-07-25T11:42:25;47.40;17.40
51029;DHT22;37054;52.054;8.600;2022-07-25T11:44:52;47.30;17.30
51029;DHT22;37054;52.054;8.600;2022-07-25T11:47:28;47.10;17.60
51029;DHT22;37054;52.054;8.600;2022-07-25T11:49:56;46.80;17.70
51029;DHT22;37054;52.054;8.600;2022-07-25T11:52:31;46.60;17.70
51029;DHT22;37054;52.054;8.600;2022-07-25T11:55:11;46.10;17.60
51029;DHT22;37054;52.054;8.600;2022-07-25T11:57:37;45.60;17.90
51029;DHT22;37054;52.054;8.600;2022-07-25T12:00:04;45.10;18.30
51029;DHT22;37054;52.054;8.600;2022-07-25T12:02:32;44.70;18.40
51029;DHT22;37054;52.054;8.600;2022-07-25T12:05:02;44.40;18.80
51029;DHT22;37054;52.054;8.600;2022-07-25T12:10:02;44.00;19.50
51029;DHT22;37054;52.054;8.600;2022-07-25T12:12:28;43.70;19.80
51029;DHT22;37054;52.054;8.600;2022-07-25T12:14:53;43.50;19.90
51029;DHT22;37054;52.054;8.600;2022-07-25T12:17:19;43.40;19.90
51029;DHT22;37054;52.054;8.600;2022-07-25T12:19:45;43.60;19.90
51029;DHT22;37054;52.054;8.600;2022-07-25T12:22:11;43.70;19.90
51029;DHT22;37054;52.054;8.600;2022-07-25T12:24:37;43.70;19.70
51029;DHT22;37054;52.054;8.600;2022-07-25T12:27:02;44.10;19.80
51029;DHT22;37054;52.054;8.600;2022-07-25T12:29:28;44.80;19.60
51029;DHT22;37054;52.054;8.600;2022-07-25T12:31:53;45.80;19.20
51029;DHT22;37054;52.054;8.600;2022-07-25T12:34:19;46.70;18.70
51029;DHT22;37054;52.054;8.600;2022-07-25T12:36:44;47.30;18.00
51029;DHT22;37054;52.054;8.600;2022-07-25T12:39:13;48.00;17.90
51029;DHT22;37054;52.054;8.600;2022-07-25T12:41:38;48.50;17.30
51029;DHT22;37054;52.054;8.600;2022-07-25T12:44:06;48.80;17.00
51029;DHT22;37054;52.054;8.600;2022-07-25T12:46:35;49.00;16.60
51029;DHT22;37054;52.054;8.600;2022-07-25T12:49:02;49.30;16.60
51029;DHT22;37054;52.054;8.600;2022-07-25T12:51:27;49.50;16.40
51029;DHT22;37054;52.054;8.600;2022-07-25T12:53:53;49.60;16.30
51029;DHT22;37054;52.054;8.600;2022-07-25T12:56:18;49.70;16.10
51029;DHT22;37054;52.054;8.600;2022-07-25T12:58:44;49.70;16.10
51029;DHT22;37054;52.054;8.600;2022-07-25T13:01:09;49.40;16.10
51029;DHT22;37054;52.054;8.600;2022-07-25T13:03:37;48.70;16.20
51029;DHT22;37054;52.054;8.600;2022-07-25T13:06:03;48.70;16.40
51029;DHT22;37054;52.054;8.600;2022-07-25T13:08:28;48.80;16.30
51029;DHT22;37054;52.054;8.600;2022-07-25T13:10:54;49.00;16.40
51029;DHT22;37054;52.054;8.600;2022-07-25T13:13:19;49.20;16.10
51029;DHT22;37054;52.054;8.600;2022-07-25T13:15:45;49.00;16.10
51029;DHT22;37054;52.054;8.600;2022-07-25T13:18:10;48.80;16.10
51029;DHT22;37054;52.054;8.600;2022-07-25T13:20:36;48.50;16.30
51029;DHT22;37054;52.054;8.600;2022-07-25T13:23:02;47.80;16.60
51029;DHT22;37054;52.054;8.600;2022-07-25T13:25:27;47.20;17.10
51029;DHT22;37054;52.054;8.600;2022-07-25T13:27:53;47.30;17.40
51029;DHT22;37054;52.054;8.600;2022-07-25T13:30:18;47.20;17.60
51029;DHT22;37054;52.054;8.600;2022-07-25T13:32:44;47.00;17.70
51029;DHT22;37054;52.054;8.600;2022-07-25T13:35:09;47.20;17.60
51029;DHT22;37054;52.054;8.600;2022-07-25T13:37:35;47.30;17.70
51029;DHT22;37054;52.054;8.600;2022-07-25T13:40:00;47.10;17.90
51029;DHT22;37054;52.054;8.600;2022-07-25T13:42:26;46.60;18.00
51029;DHT22;37054;52.054;8.600;2022-07-25T13:44:51;46.10;18.40
51029;DHT22;37054;52.054;8.600;2022-07-25T13:47:17;45.60;18.60
51029;DHT22;37054;52.054;8.600;2022-07-25T13:49:42;45.50;18.80
51029;DHT22;37054;52.054;8.600;2022-07-25T13:52:08;45.30;18.90
51029;DHT22;37054;52.054;8.600;2022-07-25T13:54:34;45.20;19.10
51029;DHT22;37054;52.054;8.600;2022-07-25T13:57:00;44.90;19.20
51029;DHT22;37054;52.054;8.600;2022-07-25T13:59:25;44.80;19.40
51029;DHT22;37054;52.054;8.600;2022-07-25T14:01:51;44.70;19.60
51029;DHT22;37054;52.054;8.600;2022-07-25T14:04:16;45.00;19.60
51029;DHT22;37054;52.054;8.600;2022-07-25T14:06:42;45.50;19.50
51029;DHT22;37054;52.054;8.600;2022-07-25T14:09:07;45.60;19.40
51029;DHT22;37054;52.054;8.600;2022-07-25T14:11:33;45.40;19.50
51029;DHT22;37054;52.054;8.600;2022-07-25T14:13:58;45.30;19.70
51029;DHT22;37054;52.054;8.600;2022-07-25T14:16:24;45.00;19.80
51029;DHT22;37054;52.054;8.600;2022-07-25T14:18:49;45.00;19.80
51029;DHT22;37054;52.054;8.600;2022-07-25T14:21:15;44.70;19.90
51029;DHT22;37054;52.054;8.600;2022-07-25T14:23:40;44.40;20.00
51029;DHT22;37054;52.054;8.600;2022-07-25T14:26:06;44.20;20.20
51029;DHT22;37054;52.054;8.600;2022-07-25T14:28:39;43.90;20.40
51029;DHT22;37054;52.054;8.600;2022-07-25T14:31:04;43.70;20.50
51029;DHT22;37054;52.054;8.600;2022-07-25T14:33:31;43.50;20.60
51029;DHT22;37054;52.054;8.600;2022-07-25T14:36:02;43.30;20.70
51029;DHT22;37054;52.054;8.600;2022-07-25T14:38:27;43.10;20.90
51029;DHT22;37054;52.054;8.600;2022-07-25T14:40:53;42.90;21.00
51029;DHT22;37054;52.054;8.600;2022-07-25T14:43:18;42.70;21.20
51029;DHT22;37054;52.054;8.600;2022-07-25T14:45:43;42.40;21.40
51029;DHT22;37054;52.054;8.600;2022-07-25T14:48:09;42.30;21.70
51029;DHT22;37054;52.054;8.600;2022-07-25T14:50:35;42.20;21.70
51029;DHT22;37054;52.054;8.600;2022-07-25T14:53:00;42.00;21.70
51029;DHT22;37054;52.054;8.600;2022-07-25T14:55:26;41.80;21.80
51029;DHT22;37054;52.054;8.600;2022-07-25T14:57:51;41.60;22.00
51029;DHT22;37054;52.054;8.600;2022-07-25T15:00:17;41.40;22.10
51029;DHT22;37054;52.054;8.600;2022-07-25T15:02:42;41.30;22.20
51029;DHT22;37054;52.054;8.600;2022-07-25T15:05:08;41.20;22.40
51029;DHT22;37054;52.054;8.600;2022-07-25T15:07:35;41.10;22.60
51029;DHT22;37054;52.054;8.600;2022-07-25T15:10:00;41.10;22.70
51029;DHT22;37054;52.054;8.600;2022-07-25T15:12:26;41.10;22.80
51029;DHT22;37054;52.054;8.600;2022-07-25T15:14:51;41.00;22.80
51029;DHT22;37054;52.054;8.600;2022-07-25T15:17:17;40.80;22.70
51029;DHT22;37054;52.054;8.600;2022-07-25T15:19:43;40.80;22.80
51029;DHT22;37054;52.054;8.600;2022-07-25T15:22:08;40.70;22.80
51029;DHT22;37054;52.054;8.600;2022-07-25T15:24:33;40.60;22.90
51029;DHT22;37054;52.054;8.600;2022-07-25T15:26:59;40.50;23.00
51029;DHT22;37054;52.054;8.600;2022-07-25T15:29:25;40.30;23.10
51029;DHT22;37054;52.054;8.600;2022-07-25T15:31:52;40.10;23.40
51029;DHT22;37054;52.054;8.600;2022-07-25T15:34:17;40.00;23.50
51029;DHT22;37054;52.054;8.600;2022-07-25T15:36:42;40.00;23.70
51029;DHT22;37054;52.054;8.600;2022-07-25T15:39:08;39.80;23.80
51029;DHT22;37054;52.054;8.600;2022-07-25T15:41:34;39.70;24.00
51029;DHT22;37054;52.054;8.600;2022-07-25T15:44:02;39.60;24.10